Time;durP1;ratioP1;P1;durP2;ratioP2;P2;SDS_P1;SDS_P2;PMS_P1;PMS_P2;Temp;Humidity;BMP_temperature;BMP_pressure;BME280_temperature;BME280_humidity;BME280_pressure;Samples;Min_cycle;Max_cycle;Signal;HPM_P1;HPM_P2
2022/05/16 00:01:43;;;;;;;7.20;2.60;;;24.20;50.60;;;;;;220150;1270;25219;-62
2022/05/16 00:06:48;;;;;;;8.90;3.10;;;24.20;50.70;;;;;;220050;1270;22542;-61
2022/05/16 00:11:53;;;;;;;5.80;2.60;;;24.10;50.60;;;;;;220306;1270;22551;-62
2022/05/16 00:17:07;;;;;;;8.10;2.40;;;24.10;50.70;;;;;;220283;1270;22683;-60
2022/05/16 00:22:20;;;;;;;10.80;3.00;;;24.10;50.70;;;;;;220559;1267;22557;-58
2022/05/16 00:27:34;;;;;;;8.10;2.30;;;24.10;50.70;;;;;;220260;1268;22550;-60
2022/05/16 00:32:51;;;;;;;12.00;3.00;;;24.10;50.70;;;;;;220534;1267;24402;-60
2022/05/16 00:37:57;;;;;;;7.50;3.10;;;24.10;50.70;;;;;;220013;1268;25467;-59
2022/05/16 00:43:11;;;;;;;5.10;2.60;;;24.00;50.70;;;;;;219955;1268;22852;-60
2022/05/16 00:48:27;;;;;;;9.70;2.70;;;24.00;50.70;;;;;;220138;1268;22577;-61
2022/05/16 00:53:33;;;;;;;11.60;3.20;;;24.00;50.70;;;;;;220099;1268;22724;-59
2022/05/16 00:58:44;;;;;;;5.30;2.40;;;24.00;50.80;;;;;;220055;1268;22538;-61
2022/05/16 01:09:25;;;;;;;6.70;2.90;;;23.90;50.70;;;;;;220069;1268;22549;-57
2022/05/16 01:14:55;;;;;;;6.80;2.40;;;23.90;50.70;;;;;;220055;1268;24402;-60
2022/05/16 01:19:59;;;;;;;10.50;3.30;;;23.90;50.70;;;;;;219823;1268;22550;-60
2022/05/16 01:25:12;;;;;;;9.90;3.10;;;23.90;50.80;;;;;;219818;1270;22553;-60
2022/05/16 01:30:21;;;;;;;7.00;2.90;;;23.90;50.80;;;;;;220100;1268;22543;-58
2022/05/16 01:35:32;;;;;;;8.70;2.90;;;23.90;50.90;;;;;;220055;1268;24071;-60
2022/05/16 01:40:37;;;;;;;13.10;3.50;;;23.80;50.70;;;;;;220147;1268;22834;-60
2022/05/16 01:45:44;;;;;;;7.80;2.90;;;23.80;50.80;;;;;;220031;1268;24390;-59
2022/05/16 01:50:50;;;;;;;8.70;2.80;;;23.80;51.10;;;;;;219904;1268;25277;-60
2022/05/16 01:55:55;;;;;;;5.60;2.20;;;23.80;50.90;;;;;;220049;1270;25641;-60
2022/05/16 02:01:00;;;;;;;16.90;3.90;;;23.80;50.80;;;;;;220252;1268;25378;-60
2022/05/16 02:06:04;;;;;;;10.80;2.30;;;23.70;50.80;;;;;;219939;1268;25280;-61
2022/05/16 02:11:09;;;;;;;9.50;2.80;;;23.70;50.80;;;;;;220069;1268;24440;-57
2022/05/16 02:16:15;;;;;;;4.60;2.00;;;23.70;50.70;;;;;;219998;1268;23960;-59
2022/05/16 02:26:48;;;;;;;4.60;2.00;;;23.70;50.90;;;;;;220020;1268;22551;-59
2022/05/16 02:31:52;;;;;;;6.90;2.50;;;23.70;50.80;;;;;;220079;1268;25377;-60
2022/05/16 02:36:59;;;;;;;4.20;2.10;;;23.60;50.60;;;;;;220318;1270;22744;-61
2022/05/16 02:42:04;;;;;;;6.20;2.40;;;23.60;50.70;;;;;;219572;1271;22590;-60
2022/05/16 02:47:18;;;;;;;7.50;2.80;;;23.60;50.80;;;;;;219912;1268;22534;-58
2022/05/16 02:52:24;;;;;;;5.10;2.30;;;23.50;50.70;;;;;;220158;1268;25348;-60
2022/05/16 02:57:38;;;;;;;6.40;2.60;;;23.50;50.60;;;;;;220140;1268;22549;-60
2022/05/16 03:02:51;;;;;;;7.70;2.60;;;23.50;50.50;;;;;;220125;1268;22586;-60
2022/05/16 03:08:03;;;;;;;5.70;2.20;;;23.50;50.60;;;;;;220158;1268;22687;-60
2022/05/16 03:13:08;;;;;;;6.30;2.50;;;23.50;50.40;;;;;;220077;1270;24232;-61
2022/05/16 03:18:13;;;;;;;7.20;2.40;;;23.50;50.50;;;;;;220321;1268;24272;-59
2022/05/16 03:23:18;;;;;;;4.80;2.40;;;23.50;50.50;;;;;;219936;1268;24210;-60
2022/05/16 03:28:25;;;;;;;5.20;2.50;;;23.40;50.60;;;;;;220286;1268;24223;-60
2022/05/16 03:33:30;;;;;;;5.50;2.60;;;23.40;50.50;;;;;;220114;1268;24259;-59
2022/05/16 03:44:00;;;;;;;6.10;2.50;;;23.40;50.60;;;;;;219974;1268;24236;-60
2022/05/16 03:49:07;;;;;;;11.70;3.50;;;23.40;50.80;;;;;;219910;1268;22598;-61
2022/05/16 03:54:17;;;;;;;6.30;2.60;;;23.40;51.10;;;;;;220396;1268;25236;-60
2022/05/16 03:59:21;;;;;;;7.40;2.90;;;23.40;50.30;;;;;;219951;1270;22784;-59
2022/05/16 04:04:25;;;;;;;4.70;2.30;;;23.40;50.40;;;;;;219918;1270;23959;-61
2022/05/16 04:09:29;;;;;;;5.80;2.70;;;23.40;50.50;;;;;;220183;1268;23941;-59
2022/05/16 04:14:34;;;;;;;8.80;3.00;;;23.40;50.70;;;;;;219946;1268;23181;-57
2022/05/16 04:19:37;;;;;;;5.20;2.40;;;23.30;50.40;;;;;;220092;1268;22695;-60
2022/05/16 04:24:42;;;;;;;4.30;2.10;;;23.40;50.60;;;;;;219970;1268;25410;-59
2022/05/16 04:29:46;;;;;;;6.50;2.30;;;23.30;50.90;;;;;;220199;1267;23051;-60
2022/05/16 04:34:50;;;;;;;10.60;3.00;;;23.30;50.50;;;;;;219887;1268;22562;-59
2022/05/16 04:39:53;;;;;;;5.80;2.60;;;23.40;50.60;;;;;;219903;1269;25353;-59
2022/05/16 04:44:57;;;;;;;3.80;2.60;;;23.30;50.80;;;;;;219981;1270;22549;-59
2022/05/16 04:50:01;;;;;;;6.20;2.50;;;23.30;50.60;;;;;;219696;1270;22642;-60
2022/05/16 04:55:05;;;;;;;7.40;3.00;;;23.30;50.30;;;;;;219996;1269;22768;-60
2022/05/16 05:00:11;;;;;;;6.00;2.80;;;23.30;50.30;;;;;;219832;1270;23052;-60
2022/05/16 05:05:16;;;;;;;5.20;2.50;;;23.30;50.50;;;;;;220420;1267;23984;-59
2022/05/16 05:15:45;;;;;;;3.50;2.40;;;23.30;50.60;;;;;;220387;1268;25329;-60
2022/05/16 05:20:49;;;;;;;5.10;2.60;;;23.30;50.00;;;;;;220236;1270;23951;-60
2022/05/16 05:25:53;;;;;;;6.50;2.60;;;23.30;50.90;;;;;;220269;1270;22589;-60
2022/05/16 05:30:57;;;;;;;5.10;2.60;;;23.30;50.40;;;;;;220033;1270;25405;-58
2022/05/16 05:36:01;;;;;;;4.90;2.60;;;23.40;51.00;;;;;;220056;1270;25373;-61
2022/05/16 05:41:07;;;;;;;6.00;2.60;;;23.30;50.80;;;;;;220197;1267;22642;-60
2022/05/16 05:46:11;;;;;;;7.20;2.80;;;23.30;50.80;;;;;;220197;1267;24676;-60
2022/05/16 05:51:16;;;;;;;7.70;2.60;;;23.40;50.70;;;;;;220054;1270;22541;-63
2022/05/16 05:56:19;;;;;;;4.40;2.40;;;23.40;50.90;;;;;;220457;1270;22696;-62
2022/05/16 06:01:23;;;;;;;5.90;2.50;;;23.40;51.00;;;;;;219766;1268;23055;-64
2022/05/16 06:06:28;;;;;;;7.70;2.70;;;23.50;50.90;;;;;;220001;1270;22612;-64
2022/05/16 06:11:31;;;;;;;5.50;2.60;;;23.40;51.70;;;;;;219949;1268;22713;-63
2022/05/16 06:16:36;;;;;;;6.30;2.70;;;23.50;51.60;;;;;;219889;1270;23977;-64
2022/05/16 06:21:40;;;;;;;8.30;2.70;;;23.50;51.00;;;;;;219686;1270;22573;-60
2022/05/16 06:26:45;;;;;;;7.90;2.80;;;23.40;50.80;;;;;;219878;1269;22545;-59
2022/05/16 06:31:50;;;;;;;10.80;2.90;;;23.50;50.60;;;;;;220242;1270;22539;-61
2022/05/16 06:36:54;;;;;;;14.40;3.10;;;23.50;50.60;;;;;;219970;1270;22584;-64
2022/05/16 06:41:57;;;;;;;11.70;2.80;;;23.60;51.10;;;;;;219938;1270;23909;-63
2022/05/16 06:47:01;;;;;;;14.20;3.60;;;23.60;51.50;;;;;;219753;1270;25232;-60
2022/05/16 06:52:08;;;;;;;24.20;3.90;;;23.60;51.10;;;;;;219924;1268;22547;-62
2022/05/16 06:57:13;;;;;;;28.00;5.00;;;23.70;51.90;;;;;;220192;1267;22838;-62
2022/05/16 07:02:17;;;;;;;16.00;3.50;;;23.80;51.70;;;;;;219729;1270;22569;-61
2022/05/16 07:07:21;;;;;;;22.20;3.40;;;23.80;51.60;;;;;;219842;1270;22567;-60
2022/05/16 07:12:28;;;;;;;17.00;3.40;;;23.80;51.30;;;;;;219755;1270;24277;-64
2022/05/16 07:17:39;;;;;;;11.20;3.10;;;23.80;50.90;;;;;;221693;1270;25397;-64
2022/05/16 07:22:46;;;;;;;11.40;3.40;;;23.70;50.60;;;;;;219604;1270;323701;-58
2022/05/16 07:27:59;;;;;;;8.50;2.80;;;23.80;50.40;;;;;;220524;1269;22557;-64
2022/05/16 07:33:03;;;;;;;15.10;2.90;;;23.80;50.20;;;;;;220030;1270;22755;-58
2022/05/16 07:38:11;;;;;;;12.10;3.20;;;23.90;49.90;;;;;;219784;1270;25435;-66
2022/05/16 07:43:17;;;;;;;7.10;2.80;;;23.90;49.70;;;;;;220081;1270;24075;-69
2022/05/16 07:48:21;;;;;;;9.30;2.70;;;23.90;49.80;;;;;;220100;1270;25506;-64
2022/05/16 07:53:25;;;;;;;14.30;4.30;;;23.90;49.30;;;;;;220170;1268;26645;-65
2022/05/16 07:58:29;;;;;;;9.30;3.00;;;23.90;49.90;;;;;;220267;1270;25245;-65
2022/05/16 08:03:33;;;;;;;9.70;2.50;;;23.90;49.30;;;;;;220420;1268;22584;-66
2022/05/16 08:14:00;;;;;;;6.00;2.60;;;23.90;49.20;;;;;;220023;1270;24338;-66
2022/05/16 08:19:04;;;;;;;11.20;2.80;;;24.00;49.20;;;;;;220172;1270;22490;-66
2022/05/16 08:24:11;;;;;;;6.40;2.50;;;24.00;49.00;;;;;;220002;1270;22538;-66
2022/05/16 08:29:23;;;;;;;10.10;2.90;;;24.00;48.80;;;;;;220055;1268;22982;-65
2022/05/16 08:34:30;;;;;;;7.30;2.50;;;24.00;48.40;;;;;;220123;1268;24470;-64
2022/05/16 08:45:00;;;;;;;5.80;2.80;;;24.10;48.10;;;;;;220125;1270;25241;-67
2022/05/16 08:50:13;;;;;;;9.60;2.60;;;24.10;48.70;;;;;;220244;1270;23425;-65
2022/05/16 08:55:24;;;;;;;13.30;3.00;;;24.20;47.90;;;;;;220224;1270;23408;-65
2022/05/16 09:00:54;;;;;;;9.10;2.70;;;24.10;47.80;;;;;;220227;1270;22853;-66
2022/05/16 09:06:02;;;;;;;7.50;2.30;;;24.20;48.10;;;;;;219838;1270;25339;-63
2022/05/16 09:11:16;;;;;;;7.10;2.10;;;24.20;48.00;;;;;;220085;1270;24263;-63
2022/05/16 09:16:51;;;;;;;8.90;2.20;;;24.20;47.90;;;;;;220110;1270;22580;-62
2022/05/16 09:22:17;;;;;;;4.80;1.80;;;24.30;47.60;;;;;;219705;1270;24420;-63
2022/05/16 09:33:06;;;;;;;5.20;2.20;;;24.30;47.30;;;;;;220248;1268;22999;-62
2022/05/16 09:38:10;;;;;;;11.70;2.80;;;24.30;47.20;;;;;;220034;1267;22732;-63
2022/05/16 10:08:13;;;;;;;11.50;3.20;;;24.40;46.90;;;;;;229445;1258;22403;-64
2022/05/16 10:13:18;;;;;;;4.50;1.80;;;24.40;46.70;;;;;;219926;1271;22617;-60
2022/05/16 10:18:24;;;;;;;8.30;2.40;;;24.50;46.60;;;;;;219918;1271;22714;-60
2022/05/16 10:23:33;;;;;;;5.10;2.00;;;24.50;46.50;;;;;;219510;1271;25637;-61
2022/05/16 10:28:46;;;;;;;4.80;1.80;;;24.50;46.30;;;;;;219924;1273;22826;-63
2022/05/16 10:34:04;;;;;;;3.90;1.80;;;24.50;46.30;;;;;;220050;1273;24084;-61
2022/05/16 10:39:15;;;;;;;4.10;1.90;;;24.50;45.80;;;;;;219822;1273;24523;-61
2022/05/16 10:44:35;;;;;;;5.70;1.90;;;24.50;45.70;;;;;;219508;1275;22544;-58
2022/05/16 10:50:04;;;;;;;4.80;2.00;;;24.60;45.90;;;;;;220048;1273;26519;-58
2022/05/16 10:55:10;;;;;;;5.40;2.00;;;24.60;46.10;;;;;;219888;1273;25323;-58
2022/05/16 11:00:56;;;;;;;5.50;1.90;;;24.60;46.10;;;;;;219702;1273;22545;-60
2022/05/16 11:06:38;;;;;;;5.70;1.90;;;24.60;47.00;;;;;;219701;1273;22557;-59
2022/05/16 11:11:51;;;;;;;8.50;2.30;;;24.60;47.70;;;;;;220046;1271;24004;-59
2022/05/16 11:17:09;;;;;;;3.40;1.60;;;24.60;47.90;;;;;;219970;1271;22699;-59
2022/05/16 11:22:21;;;;;;;7.10;2.00;;;24.60;48.20;;;;;;220043;1271;22570;-59
2022/05/16 11:28:00;;;;;;;6.50;2.10;;;24.60;48.60;;;;;;219864;1273;24411;-59
2022/05/16 11:33:23;;;;;;;3.90;1.80;;;24.70;49.00;;;;;;220082;1271;24472;-59
2022/05/16 11:38:37;;;;;;;5.90;2.20;;;24.70;49.30;;;;;;219986;1272;22547;-62
2022/05/16 11:43:49;;;;;;;7.10;2.20;;;24.70;49.60;;;;;;219645;1271;24027;-57
2022/05/16 11:49:10;;;;;;;10.10;2.80;;;24.70;50.20;;;;;;219667;1271;22624;-58
2022/05/16 11:54:40;;;;;;;7.90;2.60;;;24.70;50.00;;;;;;219433;1271;25537;-56
2022/05/16 12:05:32;;;;;;;10.20;2.80;;;24.80;50.50;;;;;;219953;1271;22579;-57
2022/05/16 12:10:58;;;;;;;8.80;2.30;;;24.80;48.70;;;;;;219808;1273;22615;-60
2022/05/16 12:16:19;;;;;;;11.50;2.40;;;24.80;48.50;;;;;;219783;1271;22862;-57
2022/05/16 12:21:34;;;;;;;5.60;2.30;;;24.90;48.20;;;;;;220085;1273;26272;-59
2022/05/16 12:26:39;;;;;;;6.30;2.00;;;24.90;48.30;;;;;;220048;1271;22667;-59
2022/05/16 12:31:49;;;;;;;5.70;2.20;;;24.90;48.20;;;;;;219601;1271;22687;-57
2022/05/16 12:36:53;;;;;;;5.00;1.70;;;24.80;47.60;;;;;;219908;1271;23043;-59
2022/05/16 12:42:35;;;;;;;4.20;1.80;;;24.90;47.30;;;;;;220145;1273;25290;-58
2022/05/16 12:47:58;;;;;;;5.30;2.10;;;24.90;47.30;;;;;;219651;1271;22641;-58
2022/05/16 12:53:31;;;;;;;5.30;2.20;;;24.90;47.10;;;;;;219892;1271;23961;-59
2022/05/16 12:59:13;;;;;;;5.50;2.00;;;24.90;46.70;;;;;;219886;1271;25409;-57
2022/05/16 13:04:29;;;;;;;9.00;2.20;;;24.90;46.50;;;;;;219879;1275;22697;-58
2022/05/16 13:10:04;;;;;;;4.80;2.00;;;24.90;46.00;;;;;;219830;1271;22743;-59
2022/05/16 13:15:27;;;;;;;4.60;1.50;;;24.90;46.10;;;;;;220026;1271;25380;-59
2022/05/16 13:20:35;;;;;;;5.70;2.00;;;25.00;46.60;;;;;;219999;1271;25269;-57
2022/05/16 13:31:13;;;;;;;5.20;2.00;;;25.00;46.40;;;;;;219770;1271;22554;-59
2022/05/16 13:36:22;;;;;;;16.10;3.00;;;25.00;46.30;;;;;;220143;1272;22651;-59
2022/05/16 13:41:29;;;;;;;3.40;1.70;;;25.00;46.20;;;;;;219976;1271;25305;-58
2022/05/16 13:46:34;;;;;;;3.00;1.70;;;25.00;45.80;;;;;;219821;1271;24444;-59
2022/05/16 13:51:52;;;;;;;3.40;1.90;;;25.00;45.70;;;;;;219880;1271;22574;-62
2022/05/16 13:57:05;;;;;;;4.60;1.60;;;25.00;45.80;;;;;;219882;1272;25039;-57
2022/05/16 14:02:15;;;;;;;6.20;2.00;;;25.00;45.30;;;;;;219377;1271;22559;-59
2022/05/16 14:07:25;;;;;;;3.80;1.70;;;25.00;45.70;;;;;;219881;1271;25493;-58
2022/05/16 14:12:54;;;;;;;11.20;2.50;;;25.00;46.00;;;;;;220052;1272;24221;-57
2022/05/16 14:18:32;;;;;;;8.40;1.80;;;25.10;46.10;;;;;;219999;1271;24456;-58
2022/05/16 14:24:04;;;;;;;10.00;2.60;;;25.00;45.60;;;;;;220084;1271;26441;-57
2022/05/16 14:29:26;;;;;;;16.00;3.50;;;25.10;46.00;;;;;;219673;1271;23140;-59
2022/05/16 14:34:42;;;;;;;13.50;3.20;;;25.10;45.70;;;;;;219532;1271;22548;-57
2022/05/16 14:39:54;;;;;;;6.10;2.20;;;25.10;45.70;;;;;;219734;1271;25140;-57
2022/05/16 14:45:05;;;;;;;8.90;2.20;;;25.10;45.60;;;;;;219744;1271;26694;-57
2022/05/16 14:50:10;;;;;;;6.80;2.20;;;25.10;45.00;;;;;;220066;1274;22583;-58
2022/05/16 14:55:15;;;;;;;5.70;1.70;;;25.10;44.80;;;;;;219943;1271;22538;-58
2022/05/16 15:05:44;;;;;;;7.10;2.30;;;25.10;44.60;;;;;;219532;1271;22504;-57
2022/05/16 15:10:48;;;;;;;7.30;2.00;;;25.10;44.60;;;;;;219739;1271;22561;-58
2022/05/16 15:15:54;;;;;;;3.70;1.70;;;25.10;44.40;;;;;;219479;1271;25623;-58
2022/05/16 15:21:00;;;;;;;9.00;2.30;;;25.10;44.30;;;;;;219834;1271;25358;-58
2022/05/16 15:26:07;;;;;;;6.10;2.10;;;25.00;44.00;;;;;;219956;1271;24440;-58
2022/05/16 15:31:17;;;;;;;4.00;1.60;;;25.10;43.70;;;;;;219773;1271;23729;-58
2022/05/16 15:36:21;;;;;;;4.90;1.90;;;25.10;43.80;;;;;;219638;1274;22553;-58
2022/05/16 15:41:25;;;;;;;7.20;2.10;;;25.10;43.70;;;;;;219913;1271;23216;-58
2022/05/16 15:46:29;;;;;;;4.20;1.90;;;25.10;43.60;;;;;;219755;1274;22536;-58
2022/05/16 15:51:37;;;;;;;5.60;1.90;;;25.10;43.30;;;;;;219740;1273;22724;-59
2022/05/16 15:56:40;;;;;;;4.00;1.90;;;25.10;43.00;;;;;;220003;1272;25359;-56
2022/05/16 16:01:46;;;;;;;5.50;2.00;;;25.00;42.40;;;;;;219855;1271;24081;-56
2022/05/16 16:12:15;;;;;;;3.40;1.90;;;25.00;43.10;;;;;;219767;1272;22559;-56
2022/05/16 16:17:19;;;;;;;5.70;1.70;;;25.00;42.70;;;;;;219809;1271;22538;-57
2022/05/16 16:22:30;;;;;;;11.90;2.80;;;25.00;42.70;;;;;;219872;1271;22632;-57
2022/05/16 16:27:37;;;;;;;16.70;3.90;;;25.00;42.80;;;;;;219409;1271;22561;-56
2022/05/16 16:32:45;;;;;;;12.50;3.40;;;25.10;43.70;;;;;;218992;1273;22552;-56
2022/05/16 16:37:53;;;;;;;8.10;2.80;;;25.10;43.90;;;;;;219441;1272;24490;-56
2022/05/16 16:43:00;;;;;;;5.50;2.40;;;25.20;43.30;;;;;;219594;1271;23465;-54
2022/05/16 16:48:08;;;;;;;8.10;2.90;;;25.20;44.00;;;;;;219327;1271;25601;-55
2022/05/16 16:58:38;;;;;;;15.70;2.70;;;25.10;41.90;;;;;;219698;1273;25579;-58
2022/05/16 17:03:51;;;;;;;9.40;2.60;;;25.10;43.20;;;;;;219228;1271;22535;-57
2022/05/16 17:09:17;;;;;;;38.90;4.10;;;25.00;41.00;;;;;;219701;1271;22565;-60
2022/05/16 17:14:21;;;;;;;38.60;3.30;;;24.90;40.70;;;;;;219764;1271;22750;-60
2022/05/16 17:19:27;;;;;;;40.60;3.40;;;24.70;40.60;;;;;;219412;1273;24324;-60
2022/05/16 17:24:38;;;;;;;40.10;3.30;;;24.60;40.30;;;;;;219939;1271;24074;-60
2022/05/16 17:29:46;;;;;;;36.30;3.90;;;24.70;41.60;;;;;;219896;1271;22659;-60
2022/05/16 17:34:49;;;;;;;31.20;4.30;;;24.70;40.70;;;;;;219560;1271;24417;-60
2022/05/16 17:39:53;;;;;;;37.70;4.70;;;24.60;40.70;;;;;;219372;1271;24307;-61
2022/05/16 17:44:57;;;;;;;29.20;4.30;;;24.70;41.70;;;;;;219859;1271;24423;-61
2022/05/16 17:50:01;;;;;;;33.30;3.90;;;24.60;41.00;;;;;;219534;1273;24349;-61
2022/05/16 17:55:08;;;;;;;31.70;4.10;;;24.50;41.50;;;;;;219253;1273;24252;-59
2022/05/16 18:00:14;;;;;;;22.60;4.70;;;24.50;41.50;;;;;;219668;1271;22561;-60
2022/05/16 18:05:19;;;;;;;22.80;4.10;;;24.50;41.70;;;;;;219715;1273;22697;-58
2022/05/16 18:10:26;;;;;;;20.50;3.60;;;24.60;42.00;;;;;;219654;1271;22658;-59
2022/05/16 18:15:30;;;;;;;14.40;3.60;;;24.50;41.90;;;;;;219880;1271;22614;-58
2022/05/16 18:20:36;;;;;;;15.40;3.80;;;24.50;41.70;;;;;;219864;1271;22570;-58
2022/05/16 18:25:41;;;;;;;10.60;3.30;;;24.50;41.50;;;;;;219810;1271;24444;-61
2022/05/16 18:30:46;;;;;;;17.80;4.10;;;24.40;41.80;;;;;;219301;1271;22547;-61
2022/05/16 18:35:50;;;;;;;15.70;3.30;;;24.40;41.70;;;;;;219646;1271;22563;-61
2022/05/16 18:40:56;;;;;;;18.10;3.90;;;24.20;41.80;;;;;;219678;1273;24449;-61
2022/05/16 18:52:05;;;;;;;20.80;4.40;;;24.20;41.60;;;;;;219313;1273;23967;-61
2022/05/16 18:57:09;;;;;;;14.40;3.60;;;24.20;42.40;;;;;;219838;1271;22817;-57
2022/05/16 19:02:25;;;;;;;15.60;4.00;;;24.50;42.40;;;;;;219771;1273;24483;-60
2022/05/16 19:07:40;;;;;;;14.20;3.90;;;24.50;43.00;;;;;;219590;1271;24283;-60
2022/05/16 19:13:05;;;;;;;12.80;3.20;;;24.30;42.80;;;;;;219965;1271;25136;-57
2022/05/16 19:18:30;;;;;;;11.80;3.50;;;24.20;43.00;;;;;;212369;1271;9823061;-58
2022/05/16 19:23:52;;;;;;;12.40;3.10;;;24.10;43.10;;;;;;219909;1271;25358;-60
2022/05/16 19:34:53;;;;;;;11.90;3.20;;;24.10;44.00;;;;;;219619;1271;22955;-65
2022/05/16 19:40:10;;;;;;;10.10;4.10;;;24.20;44.30;;;;;;219770;1271;25369;-65
2022/05/16 19:45:17;;;;;;;11.00;3.70;;;24.30;45.00;;;;;;219964;1271;25404;-64
2022/05/16 19:50:49;;;;;;;13.30;4.20;;;24.30;45.00;;;;;;219642;1271;25545;-68
2022/05/16 19:56:25;;;;;;;13.00;3.20;;;24.30;45.20;;;;;;219664;1271;22622;-67
2022/05/16 20:01:38;;;;;;;14.50;3.60;;;24.30;45.20;;;;;;219574;1271;25676;-66
2022/05/16 20:07:02;;;;;;;10.90;3.60;;;24.30;45.30;;;;;;219366;1271;23705;-64
2022/05/16 20:12:28;;;;;;;13.30;3.50;;;24.30;45.40;;;;;;219859;1271;25264;-61
2022/05/16 20:17:39;;;;;;;12.80;3.00;;;24.30;45.10;;;;;;219925;1271;23849;-62
2022/05/16 20:28:17;;;;;;;11.80;3.40;;;24.30;44.60;;;;;;219596;1271;23916;-62
2022/05/16 20:33:26;;;;;;;13.30;3.90;;;24.30;46.10;;;;;;219518;1271;22539;-63
2022/05/16 20:38:40;;;;;;;14.10;4.30;;;24.40;46.60;;;;;;219348;1270;22704;-65
2022/05/16 20:43:50;;;;;;;10.40;3.10;;;24.40;46.40;;;;;;219554;1271;24288;-64
2022/05/16 20:49:02;;;;;;;8.10;3.40;;;24.40;46.30;;;;;;219722;1273;22561;-62
2022/05/16 20:54:17;;;;;;;;;;;24.40;49.00;;;;;;220040;1270;25988;-67
2022/05/16 20:59:21;;;;;;;10.00;3.00;;;24.40;47.20;;;;;;219738;1271;24173;-67
2022/05/16 21:04:28;;;;;;;13.30;3.00;;;24.40;47.60;;;;;;219940;1271;22553;-67
2022/05/16 21:09:32;;;;;;;14.90;3.90;;;24.40;46.70;;;;;;219622;1271;22537;-69
2022/05/16 21:14:41;;;;;;;11.80;3.40;;;24.40;46.40;;;;;;219530;1272;22576;-68
2022/05/16 21:19:45;;;;;;;8.20;3.30;;;24.40;45.60;;;;;;219577;1273;25358;-65
2022/05/16 21:24:49;;;;;;;13.50;3.90;;;24.30;45.00;;;;;;219926;1271;24451;-66
2022/05/16 21:29:55;;;;;;;12.60;3.70;;;24.30;44.70;;;;;;219267;1273;24264;-67
2022/05/16 21:35:00;;;;;;;9.20;3.40;;;24.30;44.40;;;;;;219739;1271;22595;-64
2022/05/16 21:40:14;;;;;;;7.10;3.00;;;24.30;44.00;;;;;;219915;1271;24471;-66
2022/05/16 21:45:23;;;;;;;6.30;2.80;;;24.30;44.30;;;;;;219702;1271;22549;-66
2022/05/16 21:50:38;;;;;;;9.20;2.90;;;24.30;44.30;;;;;;219989;1271;22552;-67
2022/05/16 21:55:42;;;;;;;9.20;3.30;;;24.30;43.70;;;;;;219648;1273;22725;-67
2022/05/16 22:00:46;;;;;;;14.50;4.60;;;24.30;43.50;;;;;;219451;1273;24505;-65
2022/05/16 22:05:56;;;;;;;7.50;2.80;;;24.30;43.20;;;;;;220043;1273;22658;-68
2022/05/16 22:11:01;;;;;;;10.70;3.40;;;24.30;42.80;;;;;;219605;1273;24204;-65
2022/05/16 22:16:05;;;;;;;9.90;3.40;;;24.30;42.80;;;;;;220444;1272;22556;-68
2022/05/16 22:21:11;;;;;;;11.00;3.80;;;24.30;43.10;;;;;;219954;1271;24329;-71
2022/05/16 22:26:15;;;;;;;13.10;4.10;;;24.40;43.20;;;;;;220758;1270;22546;-68
2022/05/16 22:31:22;;;;;;;9.50;3.40;;;24.40;42.30;;;;;;219441;1270;22571;-68
2022/05/16 22:36:26;;;;;;;6.60;2.90;;;24.40;42.80;;;;;;219691;1272;22850;-68
2022/05/16 22:41:30;;;;;;;8.20;3.00;;;24.50;43.20;;;;;;219705;1271;26847;-68
2022/05/16 22:46:34;;;;;;;5.90;3.00;;;24.50;43.90;;;;;;220098;1271;24290;-72
2022/05/16 22:51:39;;;;;;;7.80;2.80;;;24.50;44.00;;;;;;220043;1271;22561;-68
2022/05/16 22:56:46;;;;;;;10.10;3.60;;;24.50;44.50;;;;;;219981;1271;24470;-69
2022/05/16 23:07:20;;;;;;;4.70;2.60;;;24.50;45.20;;;;;;220076;1271;22608;-68
2022/05/16 23:12:24;;;;;;;5.10;2.40;;;24.50;45.30;;;;;;220022;1271;24405;-68
2022/05/16 23:17:32;;;;;;;7.10;3.40;;;24.40;45.70;;;;;;219962;1272;22692;-69
2022/05/16 23:22:36;;;;;;;9.70;3.10;;;24.50;46.00;;;;;;219934;1272;22540;-69
2022/05/16 23:27:40;;;;;;;10.30;3.50;;;24.50;46.20;;;;;;219670;1272;22563;-68
2022/05/16 23:32:44;;;;;;;11.60;3.50;;;24.40;46.20;;;;;;219642;1273;22562;-68
2022/05/16 23:37:49;;;;;;;9.80;3.60;;;24.40;46.70;;;;;;219602;1272;25363;-68
2022/05/16 23:42:57;;;;;;;7.70;3.10;;;24.40;46.80;;;;;;219978;1271;23970;-72
2022/05/16 23:48:01;;;;;;;4.20;2.30;;;24.40;46.40;;;;;;219908;1271;25322;-68
2022/05/16 23:53:06;;;;;;;9.90;3.00;;;24.40;46.60;;;;;;219601;1271;22757;-70
2022/05/16 23:58:10;;;;;;;10.20;3.20;;;24.40;46.60;;;;;;219654;1271;25204;-69
